sensor_id;sensor_type;location;lat;lon;timestamp;P1;durP1;ratioP1;P2;durP2;ratioP2
75516;SDS011;64097;52.548;13.406;2023-04-16T06:04:22;18.58;;;15.95;;
75516;SDS011;64097;52.548;13.406;2023-04-16T06:06:48;17.67;;;15.45;;
75516;SDS011;64097;52.548;13.406;2023-04-16T06:09:13;17.48;;;15.65;;
75516;SDS011;64097;52.548;13.406;2023-04-16T06:11:39;16.30;;;14.60;;
75516;SDS011;64097;52.548;13.406;2023-04-16T06:14:05;18.75;;;16.08;;
75516;SDS011;64097;52.548;13.406;2023-04-16T06:16:31;17.08;;;15.20;;
75516;SDS011;64097;52.548;13.406;2023-04-16T06:18:56;17.77;;;15.43;;
75516;SDS011;64097;52.548;13.406;2023-04-16T06:21:22;18.65;;;16.65;;
75516;SDS011;64097;52.548;13.406;2023-04-16T06:23:48;16.63;;;14.93;;
75516;SDS011;64097;52.548;13.406;2023-04-16T06:26:13;17.05;;;14.48;;
75516;SDS011;64097;52.548;13.406;2023-04-16T06:28:39;19.05;;;16.60;;
75516;SDS011;64097;52.548;13.406;2023-04-16T06:31:06;18.92;;;16.92;;
75516;SDS011;64097;52.548;13.406;2023-04-16T06:33:32;19.30;;;16.25;;
75516;SDS011;64097;52.548;13.406;2023-04-16T06:35:58;19.33;;;17.02;;
75516;SDS011;64097;52.548;13.406;2023-04-16T06:38:23;18.50;;;16.50;;
75516;SDS011;64097;52.548;13.406;2023-04-16T06:40:49;20.08;;;17.38;;
75516;SDS011;64097;52.548;13.406;2023-04-16T06:43:15;18.95;;;16.45;;
75516;SDS011;64097;52.548;13.406;2023-04-16T06:45:41;18.88;;;16.20;;
75516;SDS011;64097;52.548;13.406;2023-04-16T06:48:07;21.02;;;18.17;;
75516;SDS011;64097;52.548;13.406;2023-04-16T06:50:33;16.38;;;14.63;;
75516;SDS011;64097;52.548;13.406;2023-04-16T06:52:58;21.70;;;17.17;;
75516;SDS011;64097;52.548;13.406;2023-04-16T06:55:24;18.95;;;16.80;;
75516;SDS011;64097;52.548;13.406;2023-04-16T06:57:50;20.10;;;18.00;;
75516;SDS011;64097;52.548;13.406;2023-04-16T07:00:16;21.25;;;18.10;;
75516;SDS011;64097;52.548;13.406;2023-04-16T07:02:41;18.77;;;16.77;;
75516;SDS011;64097;52.548;13.406;2023-04-16T07:05:07;21.63;;;18.02;;
75516;SDS011;64097;52.548;13.406;2023-04-16T07:07:34;19.80;;;16.83;;
75516;SDS011;64097;52.548;13.406;2023-04-16T07:09:59;19.95;;;17.50;;
75516;SDS011;64097;52.548;13.406;2023-04-16T07:12:25;18.98;;;16.38;;
75516;SDS011;64097;52.548;13.406;2023-04-16T07:14:51;20.80;;;18.13;;
75516;SDS011;64097;52.548;13.406;2023-04-16T07:17:17;17.92;;;16.02;;
75516;SDS011;64097;52.548;13.406;2023-04-16T07:19:43;16.67;;;14.82;;
75516;SDS011;64097;52.548;13.406;2023-04-16T07:22:08;22.98;;;19.33;;
75516;SDS011;64097;52.548;13.406;2023-04-16T07:24:34;17.15;;;15.02;;
75516;SDS011;64097;52.548;13.406;2023-04-16T07:27:00;20.58;;;16.75;;
75516;SDS011;64097;52.548;13.406;2023-04-16T07:29:25;20.08;;;17.05;;
75516;SDS011;64097;52.548;13.406;2023-04-16T07:31:51;20.05;;;17.92;;
75516;SDS011;64097;52.548;13.406;2023-04-16T07:34:17;17.23;;;15.35;;
75516;SDS011;64097;52.548;13.406;2023-04-16T07:36:42;21.08;;;18.20;;
75516;SDS011;64097;52.548;13.406;2023-04-16T07:39:08;20.63;;;18.05;;
75516;SDS011;64097;52.548;13.406;2023-04-16T07:41:35;18.92;;;16.08;;
75516;SDS011;64097;52.548;13.406;2023-04-16T07:44:01;19.05;;;16.80;;
75516;SDS011;64097;52.548;13.406;2023-04-16T07:46:27;21.70;;;17.60;;
75516;SDS011;64097;52.548;13.406;2023-04-16T07:48:53;17.98;;;15.40;;
75516;SDS011;64097;52.548;13.406;2023-04-16T07:51:19;18.45;;;16.10;;
75516;SDS011;64097;52.548;13.406;2023-04-16T07:53:44;17.67;;;14.70;;
75516;SDS011;64097;52.548;13.406;2023-04-16T07:56:10;21.77;;;17.30;;
75516;SDS011;64097;52.548;13.406;2023-04-16T07:58:36;18.67;;;15.27;;
75516;SDS011;64097;52.548;13.406;2023-04-16T08:01:01;17.52;;;15.15;;
75516;SDS011;64097;52.548;13.406;2023-04-16T08:03:27;19.00;;;16.17;;
75516;SDS011;64097;52.548;13.406;2023-04-16T08:05:53;18.63;;;15.30;;
75516;SDS011;64097;52.548;13.406;2023-04-16T08:08:18;19.48;;;16.70;;
75516;SDS011;64097;52.548;13.406;2023-04-16T08:10:44;20.35;;;16.70;;
75516;SDS011;64097;52.548;13.406;2023-04-16T08:13:10;18.75;;;15.70;;
75516;SDS011;64097;52.548;13.406;2023-04-16T08:15:36;17.80;;;14.82;;
75516;SDS011;64097;52.548;13.406;2023-04-16T08:18:01;20.80;;;16.88;;
75516;SDS011;64097;52.548;13.406;2023-04-16T08:20:29;19.63;;;15.85;;
75516;SDS011;64097;52.548;13.406;2023-04-16T08:22:55;19.00;;;15.13;;
75516;SDS011;64097;52.548;13.406;2023-04-16T08:25:21;18.90;;;14.93;;
75516;SDS011;64097;52.548;13.406;2023-04-16T08:27:48;19.85;;;15.30;;
75516;SDS011;64097;52.548;13.406;2023-04-16T08:30:15;18.92;;;15.65;;
75516;SDS011;64097;52.548;13.406;2023-04-16T08:32:41;17.50;;;14.88;;
75516;SDS011;64097;52.548;13.406;2023-04-16T08:35:07;20.55;;;17.38;;
75516;SDS011;64097;52.548;13.406;2023-04-16T08:37:34;19.58;;;16.23;;
75516;SDS011;64097;52.548;13.406;2023-04-16T08:39:59;18.42;;;15.10;;
75516;SDS011;64097;52.548;13.406;2023-04-16T08:42:29;18.65;;;15.43;;
75516;SDS011;64097;52.548;13.406;2023-04-16T08:45:08;17.98;;;15.43;;
75516;SDS011;64097;52.548;13.406;2023-04-16T08:47:43;17.90;;;15.65;;
75516;SDS011;64097;52.548;13.406;2023-04-16T08:50:18;21.02;;;17.13;;
75516;SDS011;64097;52.548;13.406;2023-04-16T08:52:51;18.42;;;15.10;;
75516;SDS011;64097;52.548;13.406;2023-04-16T08:55:22;17.42;;;14.93;;
75516;SDS011;64097;52.548;13.406;2023-04-16T08:57:58;19.15;;;16.92;;
75516;SDS011;64097;52.548;13.406;2023-04-16T09:00:25;19.35;;;15.68;;
75516;SDS011;64097;52.548;13.406;2023-04-16T09:02:52;18.77;;;16.23;;
75516;SDS011;64097;52.548;13.406;2023-04-16T09:05:18;19.67;;;17.00;;
75516;SDS011;64097;52.548;13.406;2023-04-16T09:07:47;17.38;;;15.40;;
75516;SDS011;64097;52.548;13.406;2023-04-16T09:10:15;16.85;;;14.13;;
75516;SDS011;64097;52.548;13.406;2023-04-16T09:12:42;15.95;;;14.25;;
75516;SDS011;64097;52.548;13.406;2023-04-16T09:15:11;17.10;;;15.30;;
75516;SDS011;64097;52.548;13.406;2023-04-16T09:17:38;16.50;;;14.55;;
75516;SDS011;64097;52.548;13.406;2023-04-16T09:20:05;15.07;;;13.25;;
75516;SDS011;64097;52.548;13.406;2023-04-16T09:22:33;16.05;;;14.35;;
75516;SDS011;64097;52.548;13.406;2023-04-16T09:24:59;13.85;;;12.45;;
75516;SDS011;64097;52.548;13.406;2023-04-16T09:27:25;16.20;;;13.43;;
75516;SDS011;64097;52.548;13.406;2023-04-16T09:29:51;16.05;;;14.35;;
75516;SDS011;64097;52.548;13.406;2023-04-16T09:32:18;16.13;;;14.43;;
75516;SDS011;64097;52.548;13.406;2023-04-16T09:37:22;14.82;;;13.18;;
75516;SDS011;64097;52.548;13.406;2023-04-16T09:39:55;17.10;;;15.30;;
75516;SDS011;64097;52.548;13.406;2023-04-16T09:42:26;14.77;;;13.23;;
75516;SDS011;64097;52.548;13.406;2023-04-16T09:44:53;16.02;;;14.27;;
75516;SDS011;64097;52.548;13.406;2023-04-16T09:47:20;15.60;;;13.88;;
75516;SDS011;64097;52.548;13.406;2023-04-16T09:49:46;17.40;;;15.50;;
75516;SDS011;64097;52.548;13.406;2023-04-16T09:52:13;16.23;;;14.52;;
75516;SDS011;64097;52.548;13.406;2023-04-16T09:54:49;18.35;;;15.00;;
75516;SDS011;64097;52.548;13.406;2023-04-16T09:57:17;18.52;;;15.63;;
75516;SDS011;64097;52.548;13.406;2023-04-16T10:00:01;16.52;;;14.73;;
75516;SDS011;64097;52.548;13.406;2023-04-16T10:02:28;15.88;;;13.65;;
75516;SDS011;64097;52.548;13.406;2023-04-16T10:04:55;16.90;;;15.20;;
75516;SDS011;64097;52.548;13.406;2023-04-16T10:07:26;17.45;;;14.93;;
75516;SDS011;64097;52.548;13.406;2023-04-16T10:09:53;18.35;;;16.45;;
75516;SDS011;64097;52.548;13.406;2023-04-16T10:12:20;17.60;;;15.70;;
75516;SDS011;64097;52.548;13.406;2023-04-16T10:14:46;17.88;;;15.98;;
75516;SDS011;64097;52.548;13.406;2023-04-16T10:17:11;19.10;;;17.02;;
75516;SDS011;64097;52.548;13.406;2023-04-16T10:19:37;20.00;;;17.63;;
75516;SDS011;64097;52.548;13.406;2023-04-16T10:22:04;19.50;;;17.38;;
75516;SDS011;64097;52.548;13.406;2023-04-16T10:24:31;20.83;;;18.60;;
75516;SDS011;64097;52.548;13.406;2023-04-16T10:26:57;19.52;;;17.25;;
75516;SDS011;64097;52.548;13.406;2023-04-16T10:29:28;20.75;;;18.55;;
75516;SDS011;64097;52.548;13.406;2023-04-16T10:31:55;19.80;;;17.67;;
75516;SDS011;64097;52.548;13.406;2023-04-16T10:34:21;20.05;;;17.95;;
75516;SDS011;64097;52.548;13.406;2023-04-16T10:36:51;20.17;;;17.98;;
75516;SDS011;64097;52.548;13.406;2023-04-16T10:39:19;22.67;;;19.73;;
75516;SDS011;64097;52.548;13.406;2023-04-16T10:41:47;21.92;;;19.63;;
75516;SDS011;64097;52.548;13.406;2023-04-16T10:44:15;21.08;;;18.77;;
75516;SDS011;64097;52.548;13.406;2023-04-16T10:46:43;21.65;;;19.08;;
75516;SDS011;64097;52.548;13.406;2023-04-16T10:49:32;19.45;;;17.38;;
75516;SDS011;64097;52.548;13.406;2023-04-16T10:52:00;19.20;;;17.13;;
75516;SDS011;64097;52.548;13.406;2023-04-16T10:54:42;16.80;;;15.10;;
75516;SDS011;64097;52.548;13.406;2023-04-16T10:57:09;17.65;;;15.88;;
75516;SDS011;64097;52.548;13.406;2023-04-16T10:59:41;19.00;;;17.10;;
75516;SDS011;64097;52.548;13.406;2023-04-16T11:02:08;18.30;;;16.50;;
75516;SDS011;64097;52.548;13.406;2023-04-16T11:04:44;16.33;;;14.77;;
75516;SDS011;64097;52.548;13.406;2023-04-16T11:12:25;18.48;;;16.70;;
75516;SDS011;64097;52.548;13.406;2023-04-16T11:14:59;17.15;;;15.45;;
75516;SDS011;64097;52.548;13.406;2023-04-16T11:17:36;17.55;;;15.85;;
75516;SDS011;64097;52.548;13.406;2023-04-16T11:20:06;19.05;;;17.15;;
75516;SDS011;64097;52.548;13.406;2023-04-16T11:22:53;17.65;;;16.00;;
75516;SDS011;64097;52.548;13.406;2023-04-16T11:25:21;18.20;;;16.50;;
75516;SDS011;64097;52.548;13.406;2023-04-16T11:27:47;17.30;;;15.70;;
75516;SDS011;64097;52.548;13.406;2023-04-16T11:30:13;18.45;;;16.75;;
75516;SDS011;64097;52.548;13.406;2023-04-16T11:32:39;18.25;;;16.45;;
75516;SDS011;64097;52.548;13.406;2023-04-16T11:35:15;17.10;;;15.60;;
75516;SDS011;64097;52.548;13.406;2023-04-16T11:37:42;16.90;;;15.30;;
75516;SDS011;64097;52.548;13.406;2023-04-16T11:40:08;18.45;;;16.73;;
75516;SDS011;64097;52.548;13.406;2023-04-16T11:42:38;17.27;;;15.57;;
75516;SDS011;64097;52.548;13.406;2023-04-16T11:45:05;15.98;;;14.57;;
75516;SDS011;64097;52.548;13.406;2023-04-16T11:47:41;15.52;;;14.18;;
75516;SDS011;64097;52.548;13.406;2023-04-16T11:52:44;15.02;;;13.63;;
75516;SDS011;64097;52.548;13.406;2023-04-16T11:55:11;13.75;;;12.45;;
75516;SDS011;64097;52.548;13.406;2023-04-16T11:57:36;13.07;;;11.93;;
75516;SDS011;64097;52.548;13.406;2023-04-16T12:00:02;13.75;;;12.55;;
75516;SDS011;64097;52.548;13.406;2023-04-16T12:02:37;13.30;;;12.10;;
75516;SDS011;64097;52.548;13.406;2023-04-16T12:07:57;10.88;;;9.88;;
75516;SDS011;64097;52.548;13.406;2023-04-16T12:10:29;12.90;;;11.65;;
75516;SDS011;64097;52.548;13.406;2023-04-16T12:13:11;10.63;;;9.63;;
75516;SDS011;64097;52.548;13.406;2023-04-16T12:15:42;12.98;;;11.77;;
75516;SDS011;64097;52.548;13.406;2023-04-16T12:18:10;11.68;;;10.65;;
75516;SDS011;64097;52.548;13.406;2023-04-16T12:20:39;11.18;;;9.98;;
75516;SDS011;64097;52.548;13.406;2023-04-16T12:23:08;11.30;;;10.20;;
75516;SDS011;64097;52.548;13.406;2023-04-16T12:25:35;10.57;;;9.50;;
75516;SDS011;64097;52.548;13.406;2023-04-16T12:28:01;10.85;;;9.85;;
75516;SDS011;64097;52.548;13.406;2023-04-16T12:30:27;10.70;;;9.77;;
75516;SDS011;64097;52.548;13.406;2023-04-16T12:35:42;10.65;;;9.65;;
75516;SDS011;64097;52.548;13.406;2023-04-16T12:38:09;11.38;;;10.23;;
75516;SDS011;64097;52.548;13.406;2023-04-16T12:40:35;10.88;;;9.77;;
75516;SDS011;64097;52.548;13.406;2023-04-16T12:43:01;11.10;;;9.90;;
75516;SDS011;64097;52.548;13.406;2023-04-16T12:45:27;10.93;;;9.85;;
75516;SDS011;64097;52.548;13.406;2023-04-16T12:47:53;11.15;;;10.05;;
75516;SDS011;64097;52.548;13.406;2023-04-16T12:50:20;12.63;;;10.45;;
75516;SDS011;64097;52.548;13.406;2023-04-16T12:52:46;10.70;;;9.70;;
75516;SDS011;64097;52.548;13.406;2023-04-16T12:55:12;10.55;;;9.48;;
75516;SDS011;64097;52.548;13.406;2023-04-16T12:57:38;9.90;;;8.95;;
75516;SDS011;64097;52.548;13.406;2023-04-16T13:00:04;11.38;;;9.82;;
75516;SDS011;64097;52.548;13.406;2023-04-16T13:02:30;9.73;;;8.82;;
75516;SDS011;64097;52.548;13.406;2023-04-16T13:04:56;11.15;;;10.05;;
75516;SDS011;64097;52.548;13.406;2023-04-16T13:07:22;11.60;;;10.40;;
75516;SDS011;64097;52.548;13.406;2023-04-16T13:09:50;11.00;;;9.90;;
75516;SDS011;64097;52.548;13.406;2023-04-16T13:12:17;10.48;;;9.38;;
75516;SDS011;64097;52.548;13.406;2023-04-16T13:14:42;9.63;;;8.73;;
75516;SDS011;64097;52.548;13.406;2023-04-16T13:17:08;9.48;;;8.57;;
75516;SDS011;64097;52.548;13.406;2023-04-16T13:19:34;9.95;;;8.95;;
75516;SDS011;64097;52.548;13.406;2023-04-16T13:22:00;10.52;;;9.52;;
75516;SDS011;64097;52.548;13.406;2023-04-16T13:24:25;10.07;;;9.10;;
75516;SDS011;64097;52.548;13.406;2023-04-16T13:26:51;12.95;;;10.85;;
75516;SDS011;64097;52.548;13.406;2023-04-16T13:29:18;9.95;;;8.95;;
75516;SDS011;64097;52.548;13.406;2023-04-16T13:31:44;9.50;;;8.50;;
75516;SDS011;64097;52.548;13.406;2023-04-16T13:34:10;10.15;;;8.77;;
75516;SDS011;64097;52.548;13.406;2023-04-16T13:36:36;8.25;;;7.43;;
75516;SDS011;64097;52.548;13.406;2023-04-16T13:39:02;8.82;;;7.93;;
75516;SDS011;64097;52.548;13.406;2023-04-16T13:41:35;10.10;;;8.98;;
75516;SDS011;64097;52.548;13.406;2023-04-16T13:44:01;9.57;;;8.68;;
75516;SDS011;64097;52.548;13.406;2023-04-16T13:46:27;9.23;;;8.32;;
75516;SDS011;64097;52.548;13.406;2023-04-16T13:48:53;10.27;;;9.27;;
75516;SDS011;64097;52.548;13.406;2023-04-16T13:51:19;8.95;;;8.05;;
75516;SDS011;64097;52.548;13.406;2023-04-16T13:53:45;8.98;;;8.15;;
75516;SDS011;64097;52.548;13.406;2023-04-16T13:56:11;8.10;;;7.35;;
75516;SDS011;64097;52.548;13.406;2023-04-16T13:58:37;9.20;;;8.30;;
